Time;durP1;ratioP1;P1;durP2;ratioP2;P2;SDS_P1;SDS_P2;PMS_P1;PMS_P2;Temp;Humidity;BMP_temperature;BMP_pressure;BME280_temperature;BME280_humidity;BME280_pressure;Samples;Min_cycle;Max_cycle;Signal;HPM_P1;HPM_P2
2021/10/14 00:01:01;;;;;;;11.57;8.43;;;13.50;99.90;;;;;;6179031;23;20411;-85
2021/10/14 00:03:30;;;;;;;11.40;8.10;;;13.50;99.90;;;;;;6182413;23;20461;-84
2021/10/14 00:05:59;;;;;;;10.53;8.10;;;13.40;99.90;;;;;;6202847;23;21377;-85
2021/10/14 00:08:25;;;;;;;11.13;9.33;;;13.40;99.90;;;;;;6179723;23;20476;-85
2021/10/14 00:14:26;;;;;;;13.30;7.87;;;13.50;99.90;;;;;;6194624;22;20523;-84
2021/10/14 00:16:53;;;;;;;11.53;7.73;;;13.40;99.90;;;;;;6264998;22;20395;-85
2021/10/14 00:19:20;;;;;;;9.90;7.90;;;13.40;99.90;;;;;;6266067;22;20395;-83
2021/10/14 00:21:47;;;;;;;9.50;8.30;;;13.40;99.90;;;;;;6209496;22;21063;-83
2021/10/14 00:24:14;;;;;;;9.60;7.63;;;13.30;99.90;;;;;;6203864;23;20404;-84
2021/10/14 00:26:43;;;;;;;13.10;8.23;;;13.30;99.90;;;;;;6230768;23;20754;-83
2021/10/14 00:29:09;;;;;;;11.07;8.20;;;13.30;99.90;;;;;;6232785;23;20440;-85
2021/10/14 00:31:41;;;;;;;10.03;7.10;;;13.20;99.90;;;;;;6205490;22;20396;-85
2021/10/14 00:38:05;;;;;;;9.40;7.50;;;13.40;99.90;;;;;;6156536;23;20386;-84
2021/10/14 00:40:34;;;;;;;9.53;7.20;;;13.40;99.90;;;;;;6234689;23;20460;-86
2021/10/14 00:43:02;;;;;;;9.90;7.40;;;13.30;99.90;;;;;;6203875;23;20503;-85
2021/10/14 00:49:28;;;;;;;7.87;6.60;;;13.20;99.90;;;;;;6165263;23;20522;-86
2021/10/14 00:51:55;;;;;;;16.63;6.57;;;13.00;99.90;;;;;;6174744;22;20400;-86
2021/10/14 00:54:22;;;;;;;10.43;6.67;;;12.90;99.90;;;;;;6230324;23;20423;-85
2021/10/14 00:56:49;;;;;;;6.60;5.83;;;13.00;99.90;;;;;;6205001;23;20419;-82
2021/10/14 00:59:16;;;;;;;8.97;7.03;;;13.10;99.90;;;;;;6200022;23;20404;-83
2021/10/14 01:01:50;;;;;;;9.43;6.60;;;13.10;99.90;;;;;;6239040;22;20423;-84
2021/10/14 01:04:22;;;;;;;9.17;6.77;;;13.20;99.90;;;;;;6215672;22;20584;-85
2021/10/14 01:06:50;;;;;;;10.53;6.50;;;13.20;99.90;;;;;;6210561;23;20447;-85
2021/10/14 01:09:23;;;;;;;10.27;6.80;;;13.00;99.90;;;;;;6228783;22;20455;-83
2021/10/14 01:12:02;;;;;;;12.17;6.40;;;12.90;99.90;;;;;;6195864;22;20430;-84
2021/10/14 01:15:20;;;;;;;10.03;6.50;;;12.90;99.90;;;;;;6201231;23;20480;-83
2021/10/14 01:17:47;;;;;;;8.60;5.73;;;12.90;99.90;;;;;;6193356;23;20475;-83
2021/10/14 01:20:14;;;;;;;7.50;6.47;;;12.90;99.90;;;;;;6229369;23;20379;-83
2021/10/14 01:22:41;;;;;;;9.93;6.13;;;13.00;99.90;;;;;;6235295;22;20454;-85
2021/10/14 01:29:01;;;;;;;6.90;6.27;;;13.30;99.90;;;;;;6119381;23;20438;-85
2021/10/14 01:32:15;;;;;;;9.00;6.93;;;13.30;99.90;;;;;;6221912;23;20400;-84
2021/10/14 01:39:14;;;;;;;8.37;5.73;;;12.90;99.90;;;;;;6029890;23;20450;-84
2021/10/14 01:41:45;;;;;;;8.47;5.77;;;12.80;99.90;;;;;;6104266;23;20728;-84
2021/10/14 01:44:14;;;;;;;8.73;5.90;;;12.90;99.90;;;;;;6105618;23;20439;-85
2021/10/14 01:46:41;;;;;;;9.73;6.27;;;13.10;99.90;;;;;;6105433;23;20462;-85
2021/10/14 01:49:08;;;;;;;6.60;6.00;;;13.40;99.90;;;;;;6100499;23;20991;-85
2021/10/14 01:51:35;;;;;;;9.27;6.10;;;13.60;99.90;;;;;;6107331;23;20412;-85
2021/10/14 01:54:19;;;;;;;11.37;7.37;;;13.50;99.90;;;;;;6105120;23;20440;-87
2021/10/14 02:01:09;;;;;;;9.50;5.83;;;13.60;99.90;;;;;;6006037;23;20439;-87
2021/10/14 02:03:36;;;;;;;10.30;6.87;;;13.50;99.90;;;;;;6065639;23;20479;-86
2021/10/14 02:06:30;;;;;;;7.97;6.27;;;13.50;99.90;;;;;;6123614;23;20439;-85
2021/10/14 02:08:57;;;;;;;10.50;7.00;;;13.50;99.90;;;;;;6123139;23;20503;-84
2021/10/14 02:11:25;;;;;;;7.60;6.80;;;13.40;99.90;;;;;;6192174;23;20415;-85
2021/10/14 02:13:56;;;;;;;8.23;6.37;;;13.40;99.90;;;;;;6233897;22;20432;-84
2021/10/14 02:16:24;;;;;;;9.63;6.93;;;13.30;99.90;;;;;;6204688;23;20423;-84
2021/10/14 02:18:51;;;;;;;9.90;6.40;;;13.30;99.90;;;;;;6205611;23;20470;-84
2021/10/14 02:21:23;;;;;;;9.37;6.07;;;13.40;99.90;;;;;;6230638;23;20426;-85
2021/10/14 02:23:50;;;;;;;8.60;6.67;;;13.40;99.90;;;;;;6210707;23;20446;-86
2021/10/14 02:26:17;;;;;;;10.10;7.10;;;13.50;99.90;;;;;;6206196;23;21052;-84
2021/10/14 02:28:51;;;;;;;7.93;5.53;;;13.40;99.90;;;;;;6235398;23;20410;-86
2021/10/14 02:31:21;;;;;;;11.43;5.83;;;13.40;99.90;;;;;;6234546;23;20411;-84
2021/10/14 02:33:48;;;;;;;6.70;5.50;;;13.40;99.90;;;;;;6233046;22;20436;-87
2021/10/14 02:36:14;;;;;;;8.17;6.27;;;13.40;99.90;;;;;;6205748;23;20408;-86
2021/10/14 02:38:44;;;;;;;10.20;6.80;;;13.20;99.90;;;;;;6209050;23;20412;-83
2021/10/14 02:41:12;;;;;;;8.17;5.70;;;13.20;99.90;;;;;;6231568;23;20860;-85
2021/10/14 02:43:39;;;;;;;8.27;6.33;;;13.00;99.90;;;;;;6205033;23;20458;-85
2021/10/14 02:46:10;;;;;;;9.17;6.30;;;13.10;99.90;;;;;;6233137;23;20400;-86
2021/10/14 02:48:37;;;;;;;11.57;7.80;;;13.40;99.90;;;;;;6206257;23;21267;-85
2021/10/14 02:51:04;;;;;;;6.97;5.50;;;13.60;99.90;;;;;;6231703;23;20408;-82
2021/10/14 02:53:31;;;;;;;6.13;5.40;;;13.40;99.90;;;;;;6207860;23;20434;-87
2021/10/14 02:56:12;;;;;;;8.30;6.87;;;13.30;99.90;;;;;;6214457;23;20403;-84
2021/10/14 02:58:48;;;;;;;8.80;6.30;;;13.30;99.90;;;;;;6235634;23;20921;-84
2021/10/14 03:01:44;;;;;;;9.83;6.13;;;13.20;99.90;;;;;;6236183;23;20412;-85
2021/10/14 03:04:15;;;;;;;10.33;6.30;;;13.40;99.90;;;;;;6241911;23;20956;-85
2021/10/14 03:06:50;;;;;;;9.77;6.33;;;13.40;99.90;;;;;;6186359;23;20412;-85
2021/10/14 03:09:17;;;;;;;6.87;6.10;;;13.00;99.90;;;;;;6208694;23;20518;-84
2021/10/14 03:14:17;;;;;;;8.73;6.23;;;12.90;99.90;;;;;;6207447;22;20459;-85
2021/10/14 03:16:44;;;;;;;9.70;6.03;;;13.00;99.90;;;;;;6247825;22;20447;-85
2021/10/14 03:19:22;;;;;;;;;;;;;;;;;;;;;
2021/10/14 03:22:14;;;;;;;10.30;6.00;;;12.90;99.90;;;;;;6265041;22;20535;-85
2021/10/14 03:24:41;;;;;;;8.00;6.47;;;12.80;99.90;;;;;;6235196;23;20442;-84
2021/10/14 03:27:08;;;;;;;11.10;5.93;;;12.80;99.90;;;;;;6207607;23;20799;-85
2021/10/14 03:29:36;;;;;;;13.70;6.40;;;12.70;99.90;;;;;;6235969;23;20534;-85
2021/10/14 03:35:08;;;;;;;11.00;6.70;;;12.60;99.90;;;;;;6258096;22;20527;-84
2021/10/14 03:41:39;;;;;;;10.47;6.13;;;12.50;99.90;;;;;;6226528;22;20382;-84
2021/10/14 03:44:06;;;;;;;10.83;6.20;;;12.50;99.90;;;;;;6218081;22;20431;-84
2021/10/14 03:46:33;;;;;;;8.30;6.20;;;12.60;99.90;;;;;;6194696;23;20687;-87
2021/10/14 03:52:38;;;;;;;9.30;6.40;;;12.50;99.90;;;;;;6220801;22;20880;-87
2021/10/14 03:55:12;;;;;;;9.10;5.20;;;12.60;99.90;;;;;;6199416;23;20408;-86
2021/10/14 04:01:35;;;;;;;8.07;5.80;;;13.20;99.90;;;;;;6103724;23;20379;-85
2021/10/14 04:05:02;;;;;;;10.90;5.80;;;12.90;99.90;;;;;;6105117;23;20668;-85
2021/10/14 04:10:51;;;;;;;8.40;6.07;;;12.60;99.90;;;;;;6082408;23;21486;-85
2021/10/14 04:13:20;;;;;;;5.70;5.17;;;12.70;99.90;;;;;;6226293;22;20428;-85
2021/10/14 04:15:48;;;;;;;13.70;5.70;;;12.70;99.90;;;;;;6200410;23;20408;-85
2021/10/14 04:22:05;;;;;;;10.03;5.23;;;12.60;99.90;;;;;;6172480;22;20383;-85
2021/10/14 04:24:40;;;;;;;9.27;5.80;;;12.60;99.90;;;;;;6230095;22;20408;-83
2021/10/14 04:27:15;;;;;;;10.33;5.40;;;12.60;99.90;;;;;;6191723;23;20411;-84
2021/10/14 04:29:48;;;;;;;9.37;5.57;;;12.60;99.90;;;;;;6194152;23;21410;-84
2021/10/14 04:32:22;;;;;;;10.77;6.40;;;12.70;99.90;;;;;;6196464;23;20990;-84
2021/10/14 04:43:35;;;;;;;8.20;5.57;;;12.60;99.90;;;;;;6151608;22;20485;-86
2021/10/14 04:46:28;;;;;;;9.87;5.90;;;12.50;99.90;;;;;;6249327;22;20536;-84
2021/10/14 04:52:45;;;;;;;6.10;5.50;;;12.50;99.90;;;;;;6038912;22;20443;-86
2021/10/14 04:55:26;;;;;;;7.00;5.40;;;12.50;99.90;;;;;;6249552;22;20407;-84
2021/10/14 04:57:53;;;;;;;9.17;6.40;;;12.50;99.90;;;;;;6251864;22;20406;-86
2021/10/14 05:06:23;;;;;;;11.47;6.80;;;13.10;99.90;;;;;;6251818;22;20449;-85
2021/10/14 05:08:58;;;;;;;7.43;5.40;;;13.20;99.90;;;;;;6252844;22;20421;-85
2021/10/14 05:11:32;;;;;;;7.40;6.03;;;13.10;99.90;;;;;;6256484;22;20411;-85
2021/10/14 05:13:59;;;;;;;9.40;5.77;;;13.20;99.90;;;;;;6198988;23;20880;-85
2021/10/14 05:23:59;;;;;;;19.63;7.80;;;13.20;99.90;;;;;;6231437;22;20467;-86
2021/10/14 05:31:02;;;;;;;9.63;6.20;;;13.20;99.90;;;;;;6155465;22;20434;-85
2021/10/14 05:34:59;;;;;;;;;;;;;;;;;;;;;
2021/10/14 05:41:53;;;;;;;15.87;7.17;;;13.20;99.90;;;;;;6001736;23;20401;-84
2021/10/14 05:44:20;;;;;;;13.47;7.53;;;13.30;99.90;;;;;;6017370;23;20423;-85
2021/10/14 05:46:55;;;;;;;11.33;7.03;;;13.30;99.90;;;;;;6141135;23;20493;-86
2021/10/14 05:49:22;;;;;;;10.53;7.10;;;13.20;99.90;;;;;;6224684;23;20397;-86
2021/10/14 05:56:59;;;;;;;;;;;;;;;;;;;;;
2021/10/14 06:00:09;;;;;;;15.73;7.67;;;12.70;99.90;;;;;;6096708;23;20643;-86
2021/10/14 06:02:36;;;;;;;12.50;7.70;;;12.80;99.90;;;;;;6138228;22;21183;-88
2021/10/14 06:05:07;;;;;;;13.43;7.10;;;12.60;99.90;;;;;;6245089;22;20442;-85
2021/10/14 06:07:56;;;;;;;14.40;7.33;;;12.70;99.90;;;;;;6225468;22;20395;-87
2021/10/14 06:10:23;;;;;;;16.80;7.10;;;12.60;99.90;;;;;;6249347;22;20442;-87
2021/10/14 06:12:59;;;;;;;12.50;7.80;;;12.60;99.90;;;;;;6240878;22;20551;-86
2021/10/14 06:23:04;;;;;;;9.63;6.63;;;12.60;99.90;;;;;;6117107;23;20399;-85
2021/10/14 06:36:25;;;;;;;11.83;6.30;;;12.50;99.90;;;;;;6254267;22;20425;-85
2021/10/14 06:38:52;;;;;;;10.33;5.40;;;12.50;99.90;;;;;;6146843;22;20494;-84
2021/10/14 06:41:19;;;;;;;5.70;4.70;;;12.50;99.90;;;;;;6237498;22;20479;-85
2021/10/14 06:43:48;;;;;;;6.13;5.43;;;12.50;99.90;;;;;;6223376;22;20432;-85
2021/10/14 06:53:54;;;;;;;7.50;5.13;;;12.70;99.90;;;;;;6231675;22;20971;-85
2021/10/14 06:59:53;;;;;;;9.57;5.67;;;12.90;99.90;;;;;;6094610;23;20388;-85
2021/10/14 07:02:20;;;;;;;8.57;6.00;;;12.90;99.90;;;;;;6096833;23;20441;-84
2021/10/14 07:04:57;;;;;;;8.50;6.00;;;12.80;99.90;;;;;;6076122;23;20422;-84
2021/10/14 07:07:25;;;;;;;8.43;5.70;;;13.10;99.90;;;;;;6075248;23;21458;-84
2021/10/14 07:14:15;;;;;;;7.97;5.67;;;12.90;99.90;;;;;;5958245;24;20420;-85
2021/10/14 07:47:57;;;;;;;11.70;6.73;;;12.90;99.90;;;;;;6206360;22;20529;-84
2021/10/14 07:57:27;;;;;;;9.57;8.00;;;13.40;99.90;;;;;;6242908;22;20542;-86
2021/10/14 07:59:54;;;;;;;13.80;7.73;;;13.30;99.90;;;;;;6260246;22;20396;-85
2021/10/14 09:46:47;;;;;;;;;;;;;;;;;;;;;
2021/10/14 09:49:41;;;;;;;12.07;10.33;;;13.60;99.90;;;;;;6103239;23;20410;-84
2021/10/14 09:52:09;;;;;;;13.23;11.80;;;13.60;99.90;;;;;;6169158;22;20432;-84
2021/10/14 09:55:20;;;;;;;16.40;11.57;;;13.60;99.90;;;;;;6179682;23;20462;-83
2021/10/14 09:57:47;;;;;;;15.80;10.63;;;13.60;99.90;;;;;;6168576;23;20440;-83
2021/10/14 10:00:58;;;;;;;19.23;11.93;;;13.60;99.90;;;;;;6191499;23;20495;-84
2021/10/14 10:03:31;;;;;;;13.80;10.90;;;13.70;99.90;;;;;;6196566;22;20431;-84
2021/10/14 10:06:04;;;;;;;16.70;11.30;;;13.80;99.90;;;;;;6189914;23;20825;-84
2021/10/14 10:16:20;;;;;;;15.90;12.10;;;14.00;99.90;;;;;;6120756;23;20381;-84
2021/10/14 10:22:35;;;;;;;13.70;10.53;;;14.20;99.90;;;;;;6162650;22;20399;-85
2021/10/14 10:28:47;;;;;;;11.70;9.57;;;14.30;99.90;;;;;;6213484;23;20390;-85
2021/10/14 10:31:15;;;;;;;16.87;10.83;;;14.40;99.90;;;;;;6215575;23;20715;-83
2021/10/14 10:33:59;;;;;;;11.87;9.30;;;14.30;99.90;;;;;;6213827;22;20428;-85
2021/10/14 10:40:23;;;;;;;15.77;9.13;;;14.30;99.90;;;;;;6226866;22;20399;-84
2021/10/14 10:43:04;;;;;;;13.73;9.23;;;14.40;99.90;;;;;;6207898;22;20423;-84
2021/10/14 10:53:12;;;;;;;11.40;8.07;;;14.60;99.90;;;;;;6140667;22;20511;-84
2021/10/14 10:55:57;;;;;;;9.13;6.23;;;14.70;99.90;;;;;;6208371;22;20434;-84
2021/10/14 10:58:50;;;;;;;9.80;7.43;;;14.70;99.90;;;;;;6213033;22;20403;-85
2021/10/14 11:01:22;;;;;;;10.43;7.20;;;14.70;99.90;;;;;;6220348;22;20411;-83
2021/10/14 11:08:30;;;;;;;;;;;;;;;;;;;;;
2021/10/14 11:19:21;;;;;;;10.40;6.67;;;14.90;99.90;;;;;;5984115;23;20410;-85
2021/10/14 11:25:36;;;;;;;6.80;5.33;;;14.90;99.90;;;;;;6045110;23;20388;-84
2021/10/14 11:28:10;;;;;;;8.27;6.30;;;14.90;99.90;;;;;;6060223;23;20678;-84
2021/10/14 11:30:45;;;;;;;7.40;5.90;;;14.90;99.90;;;;;;6181143;23;20436;-83
2021/10/14 11:33:48;;;;;;;8.27;6.40;;;14.90;99.90;;;;;;6180784;23;21300;-84
2021/10/14 11:36:33;;;;;;;9.83;6.33;;;14.90;99.90;;;;;;6154772;23;20405;-84
2021/10/14 11:39:09;;;;;;;7.63;6.43;;;14.90;99.90;;;;;;6152471;23;20404;-85
2021/10/14 11:47:08;;;;;;;8.33;6.27;;;15.00;99.90;;;;;;6222311;22;20467;-85
2021/10/14 11:53:29;;;;;;;8.37;5.23;;;14.90;99.90;;;;;;6062048;23;20511;-84
2021/10/14 12:08:38;;;;;;;11.80;5.80;;;14.90;99.90;;;;;;6218482;22;20479;-83
2021/10/14 12:11:21;;;;;;;7.30;4.90;;;14.90;99.90;;;;;;6217428;22;20445;-86
2021/10/14 12:14:04;;;;;;;7.90;5.43;;;14.90;99.90;;;;;;6213864;22;20456;-84
2021/10/14 12:16:35;;;;;;;7.00;5.10;;;14.90;99.90;;;;;;6184389;23;20507;-87
2021/10/14 12:20:14;;;;;;;6.80;5.20;;;14.90;99.90;;;;;;6187682;23;20406;-85
2021/10/14 12:32:30;;;;;;;6.03;5.20;;;15.10;99.90;;;;;;6165548;22;20456;-84
2021/10/14 12:35:32;;;;;;;9.77;6.27;;;15.20;99.90;;;;;;6244163;22;20529;-84
2021/10/14 12:38:54;;;;;;;7.60;5.23;;;15.20;99.90;;;;;;6115212;23;20429;-84
2021/10/14 12:50:12;;;;;;;7.30;4.93;;;15.40;99.90;;;;;;6235997;22;20451;-86
2021/10/14 12:52:41;;;;;;;6.80;4.90;;;15.50;99.90;;;;;;6227526;22;20455;-86
2021/10/14 12:55:21;;;;;;;7.70;4.00;;;15.50;99.90;;;;;;6209285;23;20430;-87
2021/10/14 13:01:47;;;;;;;9.90;4.13;;;16.00;99.90;;;;;;6206554;23;20504;-86
2021/10/14 13:04:14;;;;;;;7.20;4.57;;;16.00;99.90;;;;;;6179190;23;20428;-86
2021/10/14 13:06:41;;;;;;;8.87;5.30;;;16.10;99.60;;;;;;6206876;23;20423;-84
2021/10/14 13:09:24;;;;;;;7.60;5.10;;;16.00;99.70;;;;;;6209673;23;20454;-85
2021/10/14 13:12:03;;;;;;;6.83;4.70;;;16.10;99.90;;;;;;6206687;22;20440;-86
2021/10/14 13:14:43;;;;;;;8.27;5.53;;;16.10;99.90;;;;;;6212844;23;20408;-87
2021/10/14 13:17:31;;;;;;;5.67;4.93;;;16.60;99.80;;;;;;6185505;23;20404;-85
2021/10/14 13:20:24;;;;;;;6.57;4.80;;;17.00;98.60;;;;;;6180486;23;20499;-85
2021/10/14 13:34:15;;;;;;;7.27;4.60;;;16.60;99.20;;;;;;6121021;23;20503;-87
2021/10/14 13:41:13;;;;;;;7.23;3.90;;;16.70;99.20;;;;;;6212132;23;21310;-85
2021/10/14 13:49:52;;;;;;;3.70;3.40;;;16.40;99.50;;;;;;6242141;22;20439;-83
2021/10/14 14:16:14;;;;;;;4.87;3.97;;;16.50;99.10;;;;;;6235994;22;20432;-85
2021/10/14 14:18:41;;;;;;;12.83;4.90;;;16.50;99.10;;;;;;6236906;22;20412;-84
2021/10/14 14:25:11;;;;;;;5.23;3.60;;;16.80;98.40;;;;;;6122968;23;20385;-87
2021/10/14 15:18:10;;;;;;;5.00;3.50;;;16.10;99.80;;;;;;6151692;23;20650;-84
2021/10/14 15:24:35;;;;;;;6.07;4.00;;;16.10;99.80;;;;;;5998375;23;20762;-84
2021/10/14 15:27:12;;;;;;;;;;;;;;;;;;;;;
2021/10/14 15:29:46;;;;;;;4.20;3.60;;;16.00;99.90;;;;;;6121332;23;20410;-83
2021/10/14 15:32:53;;;;;;;6.00;3.70;;;16.00;99.90;;;;;;5984117;23;20484;-85
2021/10/14 15:35:20;;;;;;;6.67;3.93;;;16.00;99.90;;;;;;5960660;23;20494;-87
2021/10/14 15:45:26;;;;;;;4.73;3.83;;;16.00;99.90;;;;;;5838471;24;20397;-85
2021/10/14 15:47:53;;;;;;;4.83;4.00;;;16.00;99.90;;;;;;5840359;24;20980;-85
2021/10/14 15:50:26;;;;;;;4.60;3.80;;;16.00;99.90;;;;;;5837356;24;20432;-86
2021/10/14 15:52:53;;;;;;;7.53;4.67;;;16.00;99.90;;;;;;5838187;24;21569;-85
2021/10/14 15:59:26;;;;;;;6.23;5.40;;;16.00;99.90;;;;;;5938962;24;20400;-89
2021/10/14 16:07:18;;;;;;;9.70;5.30;;;16.00;99.90;;;;;;6241177;22;20439;-87
2021/10/14 16:10:47;;;;;;;;;;;;;;;;;;;;;
2021/10/14 16:13:38;;;;;;;5.57;4.50;;;16.00;99.90;;;;;;6200424;22;20485;-85
2021/10/14 16:34:12;;;;;;;4.73;4.10;;;15.90;99.90;;;;;;6245409;22;20443;-87
2021/10/14 16:40:28;;;;;;;6.10;5.33;;;15.90;99.90;;;;;;6117008;23;20408;-85
2021/10/14 16:43:51;;;;;;;4.93;4.07;;;15.80;99.90;;;;;;6183062;23;20471;-87
2021/10/14 16:46:29;;;;;;;7.70;5.50;;;15.80;99.90;;;;;;6112138;23;20416;-85
2021/10/14 16:53:11;;;;;;;9.40;4.70;;;15.90;99.90;;;;;;6248919;22;20551;-84
2021/10/14 16:55:57;;;;;;;5.50;4.87;;;15.80;99.90;;;;;;6267693;22;20403;-86
2021/10/14 16:58:45;;;;;;;7.23;5.00;;;15.80;99.90;;;;;;6239003;22;20674;-85
2021/10/14 17:15:50;;;;;;;7.03;4.47;;;15.90;99.90;;;;;;6273239;22;20424;-86
2021/10/14 17:41:36;;;;;;;8.70;7.90;;;15.90;99.90;;;;;;6275795;22;20858;-87
2021/10/14 18:00:02;;;;;;;5.77;4.53;;;15.60;99.90;;;;;;6215211;23;20439;-86
2021/10/14 18:38:24;;;;;;;17.83;13.07;;;15.50;99.90;;;;;;6266133;22;20411;-85
2021/10/14 18:41:00;;;;;;;6.33;5.73;;;15.50;99.90;;;;;;6265957;22;20403;-86
2021/10/14 18:43:31;;;;;;;9.43;6.70;;;15.50;99.90;;;;;;6247304;22;21345;-85
2021/10/14 18:49:45;;;;;;;6.97;5.83;;;15.50;99.90;;;;;;6243443;23;20440;-87
2021/10/14 18:52:23;;;;;;;8.53;5.30;;;15.50;99.90;;;;;;6215433;22;20470;-87
2021/10/14 18:55:03;;;;;;;5.13;4.33;;;15.50;99.90;;;;;;6216537;23;20511;-85
2021/10/14 18:57:35;;;;;;;5.40;4.20;;;15.50;99.90;;;;;;6217606;23;20423;-86
2021/10/14 19:00:52;;;;;;;6.50;4.17;;;15.50;99.90;;;;;;6216083;23;20410;-87
2021/10/14 20:20:50;;;;;;;7.73;5.20;;;16.10;99.90;;;;;;6253758;23;20467;-87
2021/10/14 20:23:25;;;;;;;7.83;4.70;;;16.30;99.90;;;;;;6251950;22;20436;-85
2021/10/14 20:25:53;;;;;;;7.20;4.90;;;16.20;99.90;;;;;;6251607;23;20392;-87
2021/10/14 20:31:48;;;;;;;6.60;4.73;;;15.80;99.90;;;;;;6250141;23;20494;-87
2021/10/14 21:55:51;;;;;;;7.20;5.10;;;15.70;99.90;;;;;;6246838;23;20422;-87
2021/10/14 21:58:29;;;;;;;8.00;6.10;;;15.80;99.90;;;;;;6223247;23;21146;-89
2021/10/14 22:00:59;;;;;;;7.27;6.30;;;15.80;99.90;;;;;;6220787;23;20408;-88
2021/10/14 22:08:03;;;;;;;5.40;4.93;;;15.80;99.90;;;;;;6152069;23;20463;-87
2021/10/14 22:14:19;;;;;;;5.20;4.70;;;15.70;99.90;;;;;;6152824;23;20458;-88
2021/10/14 22:16:52;;;;;;;8.73;4.93;;;15.40;99.90;;;;;;6217867;23;20435;-86
2021/10/14 22:19:23;;;;;;;5.77;4.60;;;15.20;99.90;;;;;;6217787;23;20410;-86
2021/10/14 22:21:52;;;;;;;5.23;3.70;;;15.20;99.90;;;;;;6243205;23;20404;-85
2021/10/14 22:28:15;;;;;;;6.17;4.40;;;15.00;99.90;;;;;;6201526;23;20474;-86
2021/10/14 22:30:44;;;;;;;5.20;4.53;;;15.00;99.90;;;;;;6224773;23;20388;-86
2021/10/14 22:33:11;;;;;;;5.43;4.67;;;15.00;99.90;;;;;;6223877;23;20443;-86
2021/10/14 22:35:38;;;;;;;11.47;5.43;;;15.00;99.90;;;;;;6223527;23;20387;-86
2021/10/14 23:02:01;;;;;;;4.77;3.40;;;14.80;99.90;;;;;;6280403;22;20447;-85
2021/10/14 23:04:30;;;;;;;4.30;3.00;;;14.70;99.90;;;;;;6252667;23;20501;-85
2021/10/14 23:06:59;;;;;;;5.10;3.13;;;14.70;99.90;;;;;;6224586;23;20488;-88
2021/10/14 23:09:26;;;;;;;3.10;2.80;;;14.70;99.90;;;;;;6202371;23;20958;-85
2021/10/14 23:11:53;;;;;;;4.70;3.27;;;14.70;99.90;;;;;;6260212;22;20456;-86
2021/10/14 23:14:20;;;;;;;8.30;3.20;;;14.70;99.90;;;;;;6260492;23;20420;-87
2021/10/14 23:16:50;;;;;;;3.33;3.03;;;14.70;99.90;;;;;;6256065;23;20456;-86
2021/10/14 23:23:20;;;;;;;4.10;3.00;;;14.80;99.90;;;;;;6159494;23;20405;-87
2021/10/14 23:25:47;;;;;;;4.40;2.90;;;15.30;99.90;;;;;;6203135;23;20404;-85
2021/10/14 23:28:15;;;;;;;5.90;3.10;;;15.20;99.60;;;;;;6227821;23;20438;-86
2021/10/14 23:34:19;;;;;;;6.10;3.07;;;14.90;99.90;;;;;;6219432;23;20496;-85
2021/10/14 23:37:29;;;;;;;2.90;2.60;;;15.00;99.90;;;;;;6253044;23;20404;-86
2021/10/14 23:44:13;;;;;;;3.77;2.27;;;15.10;99.30;;;;;;6126958;23;20409;-85
2021/10/14 23:46:48;;;;;;;5.90;3.20;;;15.00;98.90;;;;;;6192263;23;20410;-85
2021/10/14 23:49:40;;;;;;;4.57;2.40;;;14.90;98.30;;;;;;6193567;23;20481;-83
2021/10/14 23:55:01;;;;;;;2.53;2.30;;;14.70;97.80;;;;;;6275481;22;20443;-87
2021/10/14 23:57:29;;;;;;;4.80;3.13;;;14.60;97.90;;;;;;6261232;22;20510;-87
2021/10/14 23:59:59;;;;;;;4.90;2.90;;;14.60;98.10;;;;;;6284569;22;20433;-84
